Aérodrome :
LOGIN :

S'inscrire | Disclaimer

   EN    FR    IT 

 










Légende :    VFR   VFR Marginal   IFR   IFR Intensif   IFR Très Intensif
Visi : 
Plafond : 
>= 8 km
>= 3000ft
5 à 8 km
1000 à 3000 ft
1500m à 5 km
500 à 1000 ft
800 à 1500m
200 à 500 ft
< 800m
< 200 ft
Symboles :   Orages  Brouillard  Fortes neiges  Fortes précipitations  Vent > 20 kt
SIGMETs :   Divers  Orages  Givrage  Turbulence  Onde Orograph.  Cendres Volcan.






- Altitude de l'aérodrome : 341 ft


EPMO - Modlin

DERNIER METAR :
  • 231630Z 22008KT 5000 -RA BR SCT006 BKN013 04/04 Q1002

METARs EXPIRÉS :
  • 231600Z 23009KT 9999 -RA BKN018 05/04 Q1002
  • 231530Z 23009KT 9999 -RA BKN018 05/04 Q1003
  • 231500Z 24011KT 9999 -RA BKN020 05/03 Q1003
  • 231430Z 23013KT 7000 -RA FEW007 BKN021 06/03 Q1004
  • 231400Z 24008KT 9999 -RA BKN022 06/04 Q1004

TAF TAF EPMO
Valide du 23 à 12h jusqu'au 24 à 12h UTC


231130Z 2312/2412 26018KT 9999 BKN030
TEMPO 2312/2315 26020G31KT -SHRA SCT020CB
BECMG 2314/2316 21010KT -RA BKN014
BECMG 2316/2318 VRB02KT
TEMPO 2316/2320 4000 RA BR BKN008
TEMPO 2320/2406 2000 SHRASN RASN BKN004 BKN009CB
BECMG 2322/2324 36012KT
PROB40
TEMPO 2322/2401 36015G26KT
TEMPO 2401/2412 29020G33KT -SHRA SCT025TCU



MET'MAP, la Météo Aéronautique d'un coup d'oeil ! - Copyright ORBIFLY Décembre 2007 - Disclaimer

ORBIFLY MET'MAP TEAM :

Programmation & Développement : Alexandra Zaïnal
Sur une idée originale de : Baudouin d'Aumeries
Assistance à la programmation : Marc-Olivier Méhu
Soutien technique & logistique : Manuel Goepfert

Contact : metmap@orbifly.com




SOURCES & CREDITS :

   NOAA